Time;durP1;ratioP1;P1;durP2;ratioP2;P2;SDS_P1;SDS_P2;PMS_P1;PMS_P2;Temp;Humidity;BMP_temperature;BMP_pressure;BME280_temperature;BME280_humidity;BME280_pressure;Samples;Min_cycle;Max_cycle;Signal;HPM_P1;HPM_P2
2019/07/01 00:00:58;;;;;;;6.8;5.7;;;;;;;22.35;54.39063;940.8369;;;;
2019/07/01 00:03:24;;;;;;;8.2;5.8;;;;;;;22.16;55.04688;940.8499;;;;
2019/07/01 00:05:48;;;;;;;9.1;6.2;;;;;;;22.18;54.48633;940.7908;;;;
2019/07/01 00:08:16;;;;;;;8.2;6.1;;;;;;;22.36;55.11816;940.8748;;;;
2019/07/01 00:10:41;;;;;;;6.9;6.2;;;;;;;22.34;55.00977;940.8391;;;;
2019/07/01 00:13:09;;;;;;;7.6;5.9;;;;;;;22.34;55.0459;940.83;;;;
2019/07/01 00:15:32;;;;;;;9.5;6.2;;;;;;;22.31;54.32617;940.8342;;;;
2019/07/01 00:18:00;;;;;;;7.5;5.8;;;;;;;22.01;54.93457;940.8403;;;;
2019/07/01 00:20:22;;;;;;;7.8;6.2;;;;;;;22.09;55.6709;940.8384;;;;
2019/07/01 00:22:47;;;;;;;7.3;6.1;;;;;;;22.25;54.76367;940.7737;;;;
2019/07/01 00:25:13;;;;;;;8.7;6.4;;;;;;;21.86;55.56055;940.6825;;;;
2019/07/01 00:27:40;;;;;;;9.9;6.1;;;;;;;22.01;56.24707;940.6367;;;;
2019/07/01 00:30:02;;;;;;;8.3;6.2;;;;;;;22.06;55.5498;940.605;;;;
2019/07/01 00:32:27;;;;;;;8.5;6.3;;;;;;;22.13;55.08984;940.6724;;;;
2019/07/01 00:34:53;;;;;;;8;6.4;;;;;;;22.12;55.13477;940.5706;;;;
2019/07/01 00:37:17;;;;;;;7.7;6.2;;;;;;;22.09;54.9209;940.6567;;;;
2019/07/01 00:39:50;;;;;;;10.9;6.6;;;;;;;22.04;54.99707;940.5981;;;;
2019/07/01 00:42:11;;;;;;;10;6;;;;;;;21.85;55.30078;940.5808;;;;
2019/07/01 00:44:36;;;;;;;7.6;6.1;;;;;;;21.53;56.17578;940.4761;;;;
2019/07/01 00:47:02;;;;;;;11.2;7.1;;;;;;;21.48;56.42676;940.6;;;;
2019/07/01 00:49:26;;;;;;;8.5;6.2;;;;;;;21.64;56.05957;940.5527;;;;
2019/07/01 00:51:54;;;;;;;11.1;6.5;;;;;;;21.59;56.14648;940.5117;;;;
2019/07/01 00:54:20;;;;;;;7.1;6.1;;;;;;;21.74;55.82617;940.5313;;;;
2019/07/01 00:56:43;;;;;;;8.8;6.3;;;;;;;21.47;56.27148;940.4375;;;;
2019/07/01 00:59:07;;;;;;;7.1;6.2;;;;;;;21.67;56.36719;940.359;;;;
2019/07/01 01:01:37;;;;;;;7.9;6.4;;;;;;;21.99;55.63477;940.4701;;;;
2019/07/01 01:03:57;;;;;;;7.1;6.4;;;;;;;22.02;55.24023;940.419;;;;
2019/07/01 01:06:24;;;;;;;6.6;5.8;;;;;;;21.88;55.51465;940.3781;;;;
2019/07/01 01:08:48;;;;;;;8.7;6.5;;;;;;;21.48;56.49512;940.3846;;;;
2019/07/01 01:11:14;;;;;;;10.8;6.5;;;;;;;21.22;57.65625;940.3619;;;;
2019/07/01 01:13:37;;;;;;;8.7;6.7;;;;;;;21.06;58.44141;940.4053;;;;
2019/07/01 01:16:03;;;;;;;7.8;6.2;;;;;;;21.11;58.4248;940.3592;;;;
2019/07/01 01:18:29;;;;;;;8;6.4;;;;;;;21.26;57.98926;940.3703;;;;
2019/07/01 01:20:52;;;;;;;7.8;6.8;;;;;;;21.31;57.83105;940.4369;;;;
2019/07/01 01:23:22;;;;;;;12.5;7.1;;;;;;;21.26;58.10645;940.3793;;;;
2019/07/01 01:25:46;;;;;;;8.6;6.4;;;;;;;21.06;58.52344;940.3106;;;;
2019/07/01 01:28:09;;;;;;;6.8;6.2;;;;;;;21.24;58.02148;940.3075;;;;
2019/07/01 01:30:35;;;;;;;6.9;6.2;;;;;;;21.38;57.57129;940.2462;;;;
2019/07/01 01:32:59;;;;;;;8;6.5;;;;;;;21.18;57.88477;940.2633;;;;
2019/07/01 01:35:26;;;;;;;7.8;6.3;;;;;;;21.21;57.81836;940.2034;;;;
2019/07/01 01:37:55;;;;;;;7.3;6.5;;;;;;;20.86;58.74219;940.2162;;;;
2019/07/01 01:40:18;;;;;;;7.4;6.3;;;;;;;20.44;59.78516;940.1666;;;;
2019/07/01 01:42:44;;;;;;;10.9;6.7;;;;;;;20.4;59.98926;940.168;;;;
2019/07/01 01:45:08;;;;;;;7.7;6.5;;;;;;;20.75;58.96191;940.0528;;;;
2019/07/01 01:47:38;;;;;;;10.7;6.8;;;;;;;20.77;59.31445;940.0897;;;;
2019/07/01 01:49:58;;;;;;;7.1;6.3;;;;;;;20.94;58.40234;939.9719;;;;
2019/07/01 01:52:24;;;;;;;9.2;6.6;;;;;;;21.03;57.85352;940.0117;;;;
2019/07/01 01:54:48;;;;;;;7.6;6.5;;;;;;;20.74;58.56348;939.9941;;;;
2019/07/01 01:57:15;;;;;;;6.8;6.2;;;;;;;20.52;59.2002;939.9146;;;;
2019/07/01 01:59:42;;;;;;;6.8;6.2;;;;;;;20.6;59.12793;939.9045;;;;
2019/07/01 02:02:07;;;;;;;7.1;6.3;;;;;;;20.61;59.19043;939.8248;;;;
2019/07/01 02:04:36;;;;;;;8.6;6.4;;;;;;;20.61;59.2959;939.8766;;;;
2019/07/01 02:07:01;;;;;;;8.2;6.4;;;;;;;20.74;59.04395;939.8078;;;;
2019/07/01 02:09:28;;;;;;;8.6;6.8;;;;;;;20.9;59.625;939.9252;;;;
2019/07/01 02:11:52;;;;;;;12.4;7;;;;;;;20.92;59.04395;939.9091;;;;
2019/07/01 02:14:20;;;;;;;7.6;6.6;;;;;;;20.92;58.58789;939.9052;;;;
2019/07/01 02:16:50;;;;;;;7.6;6.5;;;;;;;21.07;58.54883;939.877;;;;
2019/07/01 02:19:10;;;;;;;13;7.2;;;;;;;21.03;58.92871;939.9041;;;;
2019/07/01 02:21:35;;;;;;;8.8;7;;;;;;;21.08;58.88965;939.8929;;;;
2019/07/01 02:24:01;;;;;;;9;7.1;;;;;;;21.19;58.02539;939.8655;;;;
2019/07/01 02:26:28;;;;;;;8.3;6.6;;;;;;;21.1;57.94531;939.9158;;;;
2019/07/01 02:28:52;;;;;;;7.2;6.5;;;;;;;20.9;58.7832;939.9381;;;;
2019/07/01 02:31:20;;;;;;;8.3;6.8;;;;;;;20.86;59.9707;939.9174;;;;
2019/07/01 02:33:46;;;;;;;7.4;6.6;;;;;;;20.74;59.51074;939.8984;;;;
2019/07/01 02:36:11;;;;;;;9.1;7.2;;;;;;;20.73;60.31543;939.9044;;;;
2019/07/01 02:38:37;;;;;;;12;7.6;;;;;;;20.67;60.02734;939.9514;;;;
2019/07/01 02:41:02;;;;;;;10.1;7.1;;;;;;;20.61;60.00684;939.9462;;;;
2019/07/01 02:43:27;;;;;;;11.8;7.5;;;;;;;20.59;60.64746;939.9144;;;;
2019/07/01 02:45:53;;;;;;;9.2;7.3;;;;;;;20.64;59.75391;939.8738;;;;
2019/07/01 02:48:17;;;;;;;8.9;7.1;;;;;;;20.65;59.60254;939.8379;;;;
2019/07/01 02:50:45;;;;;;;8.4;7.1;;;;;;;20.62;59.83301;939.9144;;;;
2019/07/01 02:53:08;;;;;;;8.6;7.2;;;;;;;20.79;59.42383;939.9442;;;;
2019/07/01 02:55:35;;;;;;;10.5;7.3;;;;;;;20.74;59.56934;939.9592;;;;
2019/07/01 02:58:03;;;;;;;9.9;7.7;;;;;;;20.67;59.8291;940.0291;;;;
2019/07/01 03:00:27;;;;;;;8.9;7.3;;;;;;;20.62;60.16016;939.9582;;;;
2019/07/01 03:02:53;;;;;;;8.5;7.3;;;;;;;20.42;60.26074;939.9583;;;;
2019/07/01 03:05:22;;;;;;;8.4;7.1;;;;;;;20.4;60.52734;940.0078;;;;
2019/07/01 03:07:48;;;;;;;10.9;7.5;;;;;;;20.51;60.22754;940.0242;;;;
2019/07/01 03:10:09;;;;;;;9.3;7.5;;;;;;;20.67;59.81738;940.063;;;;
2019/07/01 03:12:38;;;;;;;9.9;7.9;;;;;;;20.67;60.49512;940.1158;;;;
2019/07/01 03:15:04;;;;;;;9.5;7.4;;;;;;;20.67;59.92188;940.1287;;;;
2019/07/01 03:17:30;;;;;;;10.6;7.7;;;;;;;20.43;60.63672;940.082;;;;
2019/07/01 03:19:57;;;;;;;11.6;7.6;;;;;;;20.45;61.13965;940.1058;;;;
2019/07/01 03:22:21;;;;;;;10.2;7.3;;;;;;;20.5;60.9375;940.0818;;;;
2019/07/01 03:24:46;;;;;;;9;7.3;;;;;;;20.44;61.67676;940.1586;;;;
2019/07/01 03:27:12;;;;;;;8.8;7.5;;;;;;;20.56;60.8877;940.1864;;;;
2019/07/01 03:29:41;;;;;;;8.9;7.9;;;;;;;20.49;61.18262;940.2333;;;;
2019/07/01 03:32:05;;;;;;;8.1;7.3;;;;;;;20.67;60.51758;940.1974;;;;
2019/07/01 03:34:28;;;;;;;8.5;7.4;;;;;;;20.69;60.48535;940.2811;;;;
2019/07/01 03:36:53;;;;;;;8.5;7.3;;;;;;;20.57;60.71484;940.3825;;;;
2019/07/01 03:39:19;;;;;;;11.7;7.9;;;;;;;20.64;60.57324;940.3389;;;;
2019/07/01 03:41:44;;;;;;;9.5;7.2;;;;;;;20.7;60.1709;940.3876;;;;
2019/07/01 03:44:10;;;;;;;8.7;7.8;;;;;;;20.65;60.57324;940.4415;;;;
2019/07/01 03:46:38;;;;;;;9.2;7;;;;;;;20.61;60.48633;940.507;;;;
2019/07/01 03:49:05;;;;;;;8.4;7.5;;;;;;;20.61;60.92969;940.49;;;;
2019/07/01 03:51:31;;;;;;;9.5;7.2;;;;;;;20.69;60.88281;940.4753;;;;
2019/07/01 03:53:58;;;;;;;9.2;7.2;;;;;;;20.61;60.59277;940.4203;;;;
2019/07/01 03:56:20;;;;;;;10.7;7.8;;;;;;;20.61;61.37402;940.5936;;;;
2019/07/01 03:58:45;;;;;;;9.1;7.8;;;;;;;20.55;61.2832;940.5927;;;;
2019/07/01 04:02:33;;;;;;;11;7.8;;;;;;;20.68;60.55273;940.5719;;;;
2019/07/01 04:04:58;;;;;;;11.1;7.8;;;;;;;20.55;61.25977;940.6833;;;;
2019/07/01 04:07:23;;;;;;;14.5;8.7;;;;;;;20.26;62.39941;940.5742;;;;
2019/07/01 04:09:48;;;;;;;9.8;7.8;;;;;;;20.25;62.47949;940.5971;;;;
2019/07/01 04:12:15;;;;;;;8.9;8;;;;;;;20.12;62.86914;940.6395;;;;
2019/07/01 04:14:38;;;;;;;11.4;7.9;;;;;;;20.35;61.99316;940.622;;;;
2019/07/01 04:17:04;;;;;;;10.4;8.1;;;;;;;20.54;61.69238;940.6066;;;;
2019/07/01 04:19:28;;;;;;;8;7.2;;;;;;;20.29;62.14648;940.5742;;;;
2019/07/01 04:21:53;;;;;;;10.2;7.8;;;;;;;20.18;63.09961;940.5759;;;;
2019/07/01 04:24:18;;;;;;;11;8.1;;;;;;;20.22;62.96484;940.6566;;;;
2019/07/01 04:26:47;;;;;;;9.5;7.8;;;;;;;20.45;62.36719;940.6534;;;;
2019/07/01 04:29:14;;;;;;;11.4;7.7;;;;;;;20.71;61.46973;940.7053;;;;
2019/07/01 04:31:38;;;;;;;12.2;7.9;;;;;;;20.62;62.16992;940.7084;;;;
2019/07/01 04:34:03;;;;;;;9.7;7.6;;;;;;;20.44;61.85254;940.7361;;;;
2019/07/01 04:36:27;;;;;;;10.8;7.5;;;;;;;20.49;62.07031;940.7511;;;;
2019/07/01 04:38:53;;;;;;;13.1;7.5;;;;;;;20.61;61.05762;940.745;;;;
2019/07/01 04:41:17;;;;;;;10.5;7.8;;;;;;;20.87;61.73633;940.7244;;;;
2019/07/01 04:43:46;;;;;;;13.2;8.8;;;;;;;21.18;60.27148;940.8036;;;;
2019/07/01 04:46:13;;;;;;;14.8;8.7;;;;;;;21.37;59.7832;940.8215;;;;
2019/07/01 04:48:38;;;;;;;12.4;8.3;;;;;;;21.43;58.64258;940.7847;;;;
2019/07/01 04:51:02;;;;;;;10.6;8.6;;;;;;;21.29;58.62402;940.7849;;;;
2019/07/01 04:53:27;;;;;;;13.7;8.5;;;;;;;21.51;58.16211;940.7684;;;;
2019/07/01 04:55:55;;;;;;;13.5;8.6;;;;;;;21.62;58.02441;940.7321;;;;
2019/07/01 04:58:20;;;;;;;12.6;8.2;;;;;;;21.77;57.72754;940.7076;;;;
2019/07/01 05:00:54;;;;;;;10.8;7.6;;;;;;;22.02;57.25586;940.7823;;;;
2019/07/01 05:03:16;;;;;;;14.8;8.3;;;;;;;22.08;57.28613;940.7447;;;;
2019/07/01 05:05:37;;;;;;;13.4;7.7;;;;;;;22.23;56.08691;940.7939;;;;
2019/07/01 05:08:01;;;;;;;12.6;7.6;;;;;;;22.72;57.60547;940.7425;;;;
2019/07/01 05:10:31;;;;;;;10.2;7.1;;;;;;;23.54;52.52539;940.7885;;;;
2019/07/01 05:12:55;;;;;;;13.4;6.9;;;;;;;24.28;52.08105;940.818;;;;
2019/07/01 05:15:19;;;;;;;11.5;7.1;;;;;;;24.89;52.58887;940.7592;;;;
2019/07/01 05:17:41;;;;;;;11.9;7.3;;;;;;;25.09;52.89551;940.7823;;;;
2019/07/01 05:20:09;;;;;;;8.9;6.9;;;;;;;25.39;49.30566;940.7589;;;;
2019/07/01 05:22:32;;;;;;;9.8;7;;;;;;;25.41;48.10254;940.8298;;;;
2019/07/01 05:24:59;;;;;;;13.2;7;;;;;;;25.36;48.42871;940.8469;;;;
2019/07/01 05:27:23;;;;;;;11.6;6.3;;;;;;;25.59;47.7334;940.8155;;;;
2019/07/01 05:29:51;;;;;;;12.2;7.2;;;;;;;25.69;50.34375;940.8141;;;;
2019/07/01 05:32:17;;;;;;;17;6.8;;;;;;;25.74;49.52148;940.8582;;;;
2019/07/01 05:34:41;;;;;;;16.2;6.9;;;;;;;26.27;52.03027;940.8748;;;;
2019/07/01 05:37:03;;;;;;;18.7;7;;;;;;;26.68;46.93652;940.8851;;;;
2019/07/01 05:39:30;;;;;;;20.1;6.9;;;;;;;27.49;44.20898;940.9042;;;;
2019/07/01 05:41:58;;;;;;;20.7;7.5;;;;;;;27.32;46.57715;940.9437;;;;
2019/07/01 05:44:26;;;;;;;13.2;7;;;;;;;26.95;46.94141;940.905;;;;
2019/07/01 05:46:52;;;;;;;15.8;6.7;;;;;;;26.99;48.71094;940.9945;;;;
2019/07/01 05:49:17;;;;;;;13.8;6.7;;;;;;;27.2;45.9834;941.0491;;;;
2019/07/01 05:51:44;;;;;;;10.1;6;;;;;;;28.11;43.11816;941.0591;;;;
2019/07/01 05:54:04;;;;;;;10.8;6.2;;;;;;;29.44;39.41992;941.031;;;;
2019/07/01 05:56:31;;;;;;;13.2;6.4;;;;;;;29.72;38.19336;940.975;;;;
2019/07/01 05:58:57;;;;;;;13.3;6.2;;;;;;;30.23;39.46484;941.0469;;;;
2019/07/01 06:01:20;;;;;;;15.3;5.9;;;;;;;30.9;36.43945;941.0172;;;;
2019/07/01 06:03:45;;;;;;;12.5;5.7;;;;;;;31.52;34.29883;940.9841;;;;
2019/07/01 06:06:13;;;;;;;11;5.8;;;;;;;32.09;36.42676;940.9763;;;;
2019/07/01 06:08:36;;;;;;;9;5.5;;;;;;;32.2;33.25977;940.9742;;;;
2019/07/01 06:11:00;;;;;;;11.3;5.5;;;;;;;32.58;31.70215;941.0175;;;;
2019/07/01 06:13:25;;;;;;;12.8;5.6;;;;;;;32.4;32.38574;941.0052;;;;
2019/07/01 06:15:55;;;;;;;13.8;5.3;;;;;;;32.33;34.15723;940.9819;;;;
2019/07/01 06:18:19;;;;;;;8.9;5.7;;;;;;;33.29;34.13184;940.9241;;;;
2019/07/01 06:20:41;;;;;;;7.7;5.2;;;;;;;34.11;32.54395;940.9504;;;;
2019/07/01 06:23:06;;;;;;;10.3;5.2;;;;;;;33.32;35.78125;940.9451;;;;
2019/07/01 06:25:32;;;;;;;13.6;5.3;;;;;;;31.91;34.16016;940.8806;;;;
2019/07/01 06:27:57;;;;;;;12.8;5.4;;;;;;;32.03;34.37305;940.847;;;;
2019/07/01 06:30:21;;;;;;;11.9;5.6;;;;;;;32.98;31.0332;940.858;;;;
2019/07/01 06:32:46;;;;;;;9.1;5.1;;;;;;;33.42;31.78516;940.8795;;;;
2019/07/01 06:35:13;;;;;;;8.1;5.2;;;;;;;33.94;31.92969;940.8453;;;;
2019/07/01 06:37:38;;;;;;;7.3;5.3;;;;;;;34.33;28.74121;940.8166;;;;
2019/07/01 06:40:01;;;;;;;9.8;5;;;;;;;34.16;29.76563;940.787;;;;
2019/07/01 06:42:27;;;;;;;16.7;7.2;;;;;;;34.51;30.3916;940.7523;;;;
2019/07/01 06:44:54;;;;;;;10.8;5;;;;;;;34.73;29.35742;940.7292;;;;
2019/07/01 06:47:18;;;;;;;9.9;5;;;;;;;34.93;30.68457;940.7544;;;;
2019/07/01 06:49:43;;;;;;;8.6;4.7;;;;;;;35.73;29.05859;940.742;;;;
2019/07/01 06:52:16;;;;;;;8.8;5.5;;;;;;;36.12;26.45996;940.618;;;;
2019/07/01 06:54:36;;;;;;;8.6;4.7;;;;;;;35.95;28.96387;940.6599;;;;
2019/07/01 06:56:58;;;;;;;8.2;4.9;;;;;;;36.16;27.21191;940.5972;;;;
2019/07/01 06:59:24;;;;;;;8;5.1;;;;;;;36.67;26.7207;940.7021;;;;
2019/07/01 07:01:48;;;;;;;5.8;4.5;;;;;;;37.3;25.88574;940.6873;;;;
2019/07/01 07:04:15;;;;;;;9.1;5.1;;;;;;;37.87;24.70313;940.702;;;;
2019/07/01 07:06:42;;;;;;;7.2;4.6;;;;;;;37.97;25.33984;940.7123;;;;
2019/07/01 07:09:10;;;;;;;9.8;4.4;;;;;;;38.37;24.49902;940.6375;;;;
2019/07/01 07:11:35;;;;;;;9.4;4.4;;;;;;;38.72;23.4834;940.606;;;;
2019/07/01 07:13:59;;;;;;;6.2;4.7;;;;;;;38.31;22.9043;940.5818;;;;
2019/07/01 07:16:25;;;;;;;6.2;4.6;;;;;;;38.12;26.5752;940.5578;;;;
2019/07/01 07:18:52;;;;;;;7;4.3;;;;;;;38.18;24.23438;940.5683;;;;
2019/07/01 07:21:16;;;;;;;8.4;4.5;;;;;;;38.7;23.14258;940.5997;;;;
2019/07/01 07:23:39;;;;;;;9.1;4.9;;;;;;;38.05;25.2959;940.5734;;;;
2019/07/01 07:26:05;;;;;;;9.6;4.4;;;;;;;38.64;25.44922;940.5549;;;;
2019/07/01 07:28:36;;;;;;;6.4;4;;;;;;;38.68;24.28418;940.5206;;;;
2019/07/01 07:30:59;;;;;;;8.3;4.7;;;;;;;38.67;22.75195;940.5488;;;;
2019/07/01 07:33:29;;;;;;;6;4.3;;;;;;;38.23;23.39746;940.5017;;;;
2019/07/01 07:35:53;;;;;;;11.7;4.8;;;;;;;38.27;27.42188;940.5647;;;;
2019/07/01 07:38:16;;;;;;;8.3;4.4;;;;;;;38.72;25.06445;940.5832;;;;
2019/07/01 07:40:41;;;;;;;7.7;4.4;;;;;;;39.43;25.79785;940.5963;;;;
2019/07/01 07:43:12;;;;;;;6.9;4.4;;;;;;;38.83;24.94922;940.5955;;;;
2019/07/01 07:45:30;;;;;;;8;4.5;;;;;;;39.65;24.55469;940.6039;;;;
2019/07/01 07:47:56;;;;;;;8.2;4.3;;;;;;;39.92;24.33789;940.5154;;;;
2019/07/01 07:50:20;;;;;;;6.8;4.5;;;;;;;39.89;24.18945;940.5408;;;;
2019/07/01 07:52:45;;;;;;;6.9;4.2;;;;;;;40.54;25.43262;940.4955;;;;
2019/07/01 07:55:13;;;;;;;9.7;4.5;;;;;;;40.68;24.18262;940.5275;;;;
2019/07/01 07:57:36;;;;;;;10.4;4.6;;;;;;;39.78;25.08594;940.5309;;;;
2019/07/01 08:00:03;;;;;;;7.6;4.6;;;;;;;39.85;24.49316;940.49;;;;
2019/07/01 08:02:29;;;;;;;8;4.5;;;;;;;39.7;26.16699;940.4914;;;;
2019/07/01 08:04:54;;;;;;;7.9;4.6;;;;;;;39.93;25.13086;940.4509;;;;
2019/07/01 08:07:17;;;;;;;9.1;4.5;;;;;;;40.45;24.43848;940.4389;;;;
2019/07/01 08:09:43;;;;;;;8.5;4.2;;;;;;;40.36;21.96875;940.3834;;;;
2019/07/01 08:12:14;;;;;;;11.9;4.8;;;;;;;40.66;21.53125;940.4177;;;;
2019/07/01 08:14:34;;;;;;;7.3;4.5;;;;;;;40.39;25.48535;940.3716;;;;
2019/07/01 08:17:01;;;;;;;8.8;4.4;;;;;;;40.61;25.7666;940.3243;;;;
2019/07/01 08:19:24;;;;;;;8.2;4.5;;;;;;;39.95;25.77832;940.301;;;;
2019/07/01 08:21:51;;;;;;;10.3;4.9;;;;;;;39.06;25.42383;940.2325;;;;
2019/07/01 08:24:16;;;;;;;9.9;4.9;;;;;;;38.89;26.07227;940.25;;;;
2019/07/01 08:26:40;;;;;;;8.3;5;;;;;;;38.35;28.49609;940.2491;;;;
2019/07/01 08:29:05;;;;;;;10.5;5.2;;;;;;;37.93;26.51465;940.1987;;;;
2019/07/01 08:31:36;;;;;;;8.7;5.1;;;;;;;39.07;27.05566;940.3375;;;;
2019/07/01 08:34:01;;;;;;;10.5;5;;;;;;;39.08;26.18066;940.2907;;;;
2019/07/01 08:36:33;;;;;;;9.6;5.1;;;;;;;39.14;29.62891;940.2434;;;;
2019/07/01 08:39:01;;;;;;;9.2;5.3;;;;;;;38.99;28.69336;940.1853;;;;
2019/07/01 08:41:23;;;;;;;57.5;7.4;;;;;;;40.21;25.64648;940.1392;;;;
2019/07/01 08:43:51;;;;;;;10.9;5.4;;;;;;;39.99;27.04883;940.1847;;;;
2019/07/01 08:46:23;;;;;;;11.4;5.3;;;;;;;39.03;28.83105;940.1492;;;;
2019/07/01 08:48:42;;;;;;;17.7;5.4;;;;;;;37.88;29.6084;940.1627;;;;
2019/07/01 08:51:06;;;;;;;9.4;5.4;;;;;;;37.04;31.86914;940.2203;;;;
2019/07/01 08:53:32;;;;;;;13.9;6.3;;;;;;;36;34.2627;940.0976;;;;
2019/07/01 08:55:57;;;;;;;11.3;6.5;;;;;;;35.13;37.11816;940.106;;;;
2019/07/01 08:58:22;;;;;;;17.1;6.2;;;;;;;34.72;36.60156;940.1046;;;;
2019/07/01 09:00:48;;;;;;;14.2;6.1;;;;;;;34.32;37.20801;940.0917;;;;
2019/07/01 09:03:16;;;;;;;13.8;6.2;;;;;;;33.56;36.89355;940.1051;;;;
2019/07/01 09:05:46;;;;;;;12.7;6.5;;;;;;;32.8;38.23633;940.1689;;;;
2019/07/01 09:08:04;;;;;;;12.4;6.3;;;;;;;32.53;38.32227;940.147;;;;
2019/07/01 09:10:29;;;;;;;15.3;7.1;;;;;;;31.82;40.69434;940.0756;;;;
2019/07/01 09:12:54;;;;;;;15.2;6.7;;;;;;;31.62;41.61035;939.9352;;;;
2019/07/01 09:15:22;;;;;;;15.2;7;;;;;;;31.37;42.67578;939.8517;;;;
2019/07/01 09:17:45;;;;;;;14;6.6;;;;;;;31.02;43.16992;939.7364;;;;
2019/07/01 09:20:11;;;;;;;10.6;6.5;;;;;;;30.7;44.27441;939.7317;;;;
2019/07/01 09:22:40;;;;;;;13.6;7.2;;;;;;;30.54;44.31836;939.8287;;;;
2019/07/01 09:25:03;;;;;;;14.6;7.4;;;;;;;30.61;45.54395;939.8786;;;;
2019/07/01 09:27:29;;;;;;;15.3;7.3;;;;;;;30.48;45.61523;939.9839;;;;
2019/07/01 09:29:59;;;;;;;15.5;7;;;;;;;30.4;46.15625;940.0323;;;;
2019/07/01 09:32:26;;;;;;;12.6;7.3;;;;;;;30.29;46.55078;940.2138;;;;
2019/07/01 09:34:54;;;;;;;10.5;6.7;;;;;;;29.77;46.36523;940.3052;;;;
2019/07/01 09:37:20;;;;;;;13.5;6.8;;;;;;;29.39;46.1123;940.2427;;;;
2019/07/01 09:39:45;;;;;;;19.2;6.7;;;;;;;29.27;47.51758;940.0349;;;;
2019/07/01 09:42:16;;;;;;;20.4;7.5;;;;;;;28.24;54.7666;940.1027;;;;
2019/07/01 09:44:39;;;;;;;23.8;8.5;;;;;;;27.42;60.12402;940.0117;;;;
2019/07/01 09:47:00;;;;;;;20.5;8.8;;;;;;;26.25;63.59863;939.9378;;;;
2019/07/01 09:49:26;;;;;;;21.7;9.4;;;;;;;25.68;66.2373;939.989;;;;
2019/07/01 09:51:57;;;;;;;27.7;10;;;;;;;25.26;65.97461;940.022;;;;
2019/07/01 09:54:21;;;;;;;21.1;9.2;;;;;;;24.94;67.42578;940.0042;;;;
2019/07/01 09:56:49;;;;;;;30.6;13.1;;;;;;;24.85;73.28516;940.0531;;;;
2019/07/01 09:59:14;;;;;;;47.7;18.2;;;;;;;24.69;70.99609;940.1238;;;;
2019/07/01 10:01:38;;;;;;;28.2;11;;;;;;;24.71;73.7002;940.3289;;;;
2019/07/01 10:04:02;;;;;;;30.4;11.8;;;;;;;24.48;75.33594;940.576;;;;
2019/07/01 10:06:31;;;;;;;26.8;13;;;;;;;24.38;76.33105;940.8729;;;;
2019/07/01 10:08:55;;;;;;;44;16.7;;;;;;;24.15;74.63184;940.9878;;;;
2019/07/01 10:11:21;;;;;;;27.7;12.3;;;;;;;23.91;75.62793;941.2391;;;;
2019/07/01 10:13:49;;;;;;;25.9;11.4;;;;;;;23.4;76.72852;941.3759;;;;
2019/07/01 10:16:14;;;;;;;22.7;10.9;;;;;;;23.32;76.02051;941.3448;;;;
2019/07/01 10:18:37;;;;;;;28.9;11.1;;;;;;;23.01;77.47168;941.3442;;;;
2019/07/01 10:21:03;;;;;;;21.4;10.4;;;;;;;23.03;77.36914;941.2854;;;;
2019/07/01 10:23:32;;;;;;;24.2;10.6;;;;;;;23;77.15137;941.2464;;;;
2019/07/01 10:25:57;;;;;;;16.5;9.1;;;;;;;22.99;76.08105;941.0876;;;;
2019/07/01 10:28:18;;;;;;;22.4;10.6;;;;;;;23.36;76.39258;940.8833;;;;
2019/07/01 10:30:43;;;;;;;23.3;10.3;;;;;;;23.49;74.95605;940.813;;;;
2019/07/01 10:33:15;;;;;;;20.5;10.3;;;;;;;23.38;76.47656;940.738;;;;
2019/07/01 10:35:35;;;;;;;22.7;10.7;;;;;;;23.46;77.24512;940.9255;;;;
2019/07/01 10:37:59;;;;;;;19.8;9.1;;;;;;;23.32;73.61035;941.0057;;;;
2019/07/01 10:40:23;;;;;;;19;9.1;;;;;;;23.41;74.60156;941.0887;;;;
2019/07/01 10:42:48;;;;;;;21.6;9.5;;;;;;;22.99;74.4248;941.2045;;;;
2019/07/01 10:45:14;;;;;;;20.9;9.3;;;;;;;22.66;76.55371;941.2407;;;;
2019/07/01 10:47:40;;;;;;;25.8;9.3;;;;;;;22.7;76.9375;941.1394;;;;
2019/07/01 10:50:06;;;;;;;18.9;9;;;;;;;22.79;75.89453;941.1837;;;;
2019/07/01 10:52:30;;;;;;;18.2;8.4;;;;;;;22.82;73.78711;941.2576;;;;
2019/07/01 10:54:57;;;;;;;21.4;9.2;;;;;;;22.93;75.79004;941.2081;;;;
2019/07/01 10:57:21;;;;;;;19.1;8.2;;;;;;;23.21;72.06543;941.1647;;;;
2019/07/01 10:59:50;;;;;;;20.5;9.3;;;;;;;23.35;74.83984;941.1054;;;;
2019/07/01 11:02:20;;;;;;;19.7;9.5;;;;;;;23.47;73.80078;941.0583;;;;
2019/07/01 11:04:42;;;;;;;20.8;10.2;;;;;;;23.43;75.17969;941.269;;;;
2019/07/01 11:07:05;;;;;;;23.6;11.1;;;;;;;23.1;77.97949;941.4148;;;;
2019/07/01 11:09:31;;;;;;;18.5;10.9;;;;;;;23.21;79.45703;941.4807;;;;
2019/07/01 11:12:03;;;;;;;20.7;10.5;;;;;;;22.87;79.11426;941.6234;;;;
2019/07/01 11:14:21;;;;;;;21.5;11.2;;;;;;;23.1;79.60059;941.8997;;;;
2019/07/01 11:16:47;;;;;;;20.3;11;;;;;;;23.32;78.54785;942.09;;;;
2019/07/01 11:19:16;;;;;;;20.2;11.4;;;;;;;23.14;79.25684;942.0193;;;;
2019/07/01 11:21:42;;;;;;;26.4;12.9;;;;;;;22.95;80.27832;942.0117;;;;
2019/07/01 11:24:07;;;;;;;23.1;11.9;;;;;;;22.97;79.54297;942.0825;;;;
2019/07/01 11:26:36;;;;;;;19.2;12.2;;;;;;;23.07;79.87793;942.1639;;;;
2019/07/01 11:29:03;;;;;;;25.8;13;;;;;;;23.18;79.62891;942.243;;;;
2019/07/01 11:31:25;;;;;;;25.3;11.4;;;;;;;23.14;79.73828;942.2313;;;;
2019/07/01 11:33:49;;;;;;;19.3;11.6;;;;;;;23.35;79.22461;942.1847;;;;
2019/07/01 11:36:16;;;;;;;22.6;12.1;;;;;;;23.28;79.43359;942.0784;;;;
2019/07/01 11:38:41;;;;;;;18.8;9.6;;;;;;;23.3;75.4043;942.0062;;;;
2019/07/01 11:41:07;;;;;;;16.9;9;;;;;;;23.13;75.49609;942.0334;;;;
2019/07/01 11:43:40;;;;;;;18;8.8;;;;;;;22.86;76.21191;942.0272;;;;
2019/07/01 11:45:58;;;;;;;19.2;9;;;;;;;22.78;76.8457;942.1331;;;;
2019/07/01 11:48:21;;;;;;;18.2;9.7;;;;;;;22.78;78.6875;942.0343;;;;
2019/07/01 11:50:46;;;;;;;18.4;10.9;;;;;;;22.83;79.09473;941.9545;;;;
2019/07/01 11:53:13;;;;;;;16.9;9.8;;;;;;;22.91;78.66406;941.9689;;;;
2019/07/01 11:55:46;;;;;;;19.6;10.7;;;;;;;22.88;79.05859;941.9162;;;;
2019/07/01 11:58:03;;;;;;;20.7;10.2;;;;;;;22.89;79.63379;941.8292;;;;
2019/07/01 12:00:29;;;;;;;17.3;9.1;;;;;;;23.12;77.79492;941.7975;;;;
2019/07/01 12:02:53;;;;;;;15.3;9.7;;;;;;;23.12;76.98535;941.8185;;;;
2019/07/01 12:05:22;;;;;;;17.9;9.4;;;;;;;23.14;75.81348;941.8723;;;;
2019/07/01 12:07:47;;;;;;;17.3;9;;;;;;;23.05;75.59863;941.8111;;;;
2019/07/01 12:10:12;;;;;;;17.2;9;;;;;;;23.04;75.53809;941.7082;;;;
2019/07/01 12:12:39;;;;;;;22.5;10.1;;;;;;;23.16;76.18066;941.6662;;;;
2019/07/01 12:15:02;;;;;;;19.8;9.8;;;;;;;23.3;77.07422;941.7292;;;;
2019/07/01 12:17:29;;;;;;;15.9;8.6;;;;;;;23.31;73.8916;941.597;;;;
2019/07/01 12:19:53;;;;;;;20.2;9.6;;;;;;;23.26;76.29199;941.4705;;;;
2019/07/01 12:22:20;;;;;;;19.3;8.9;;;;;;;23.49;74.28613;941.4984;;;;
2019/07/01 12:24:46;;;;;;;22.4;9.2;;;;;;;23.65;74.41895;941.4672;;;;
2019/07/01 12:27:09;;;;;;;15.2;8.2;;;;;;;23.82;73.44531;941.4783;;;;
2019/07/01 12:29:35;;;;;;;17.1;7.9;;;;;;;24.03;72.0332;941.4391;;;;
2019/07/01 12:32:04;;;;;;;15.9;7.9;;;;;;;23.81;71.94922;941.2672;;;;
2019/07/01 12:34:35;;;;;;;13.4;7.8;;;;;;;23.98;73.04883;941.3033;;;;
2019/07/01 12:36:52;;;;;;;14.3;7.2;;;;;;;24.21;70.16602;941.1613;;;;
2019/07/01 12:39:22;;;;;;;11.9;7.3;;;;;;;24.88;67.60352;941.1083;;;;
2019/07/01 12:41:45;;;;;;;13.7;6.8;;;;;;;25.63;67.95508;941.1323;;;;
2019/07/01 12:44:07;;;;;;;13.9;7.1;;;;;;;25.99;66.37793;941.1175;;;;
2019/07/01 12:46:33;;;;;;;18;6.5;;;;;;;26.55;63.00293;941.1233;;;;
2019/07/01 12:49:05;;;;;;;12.7;6.5;;;;;;;26.92;65.15137;941.1453;;;;
2019/07/01 12:51:24;;;;;;;16.4;6.6;;;;;;;27.08;62.21289;941.1508;;;;
2019/07/01 12:53:49;;;;;;;17.5;7.1;;;;;;;26.62;63.47363;941.1308;;;;
2019/07/01 12:56:14;;;;;;;13.6;6.7;;;;;;;26.68;64.80957;941.0341;;;;
2019/07/01 12:58:41;;;;;;;14.2;6.9;;;;;;;26.61;64.07617;940.9973;;;;
2019/07/01 13:01:09;;;;;;;12;6.6;;;;;;;26.62;63.27441;940.9426;;;;
2019/07/01 13:03:29;;;;;;;14.4;6.7;;;;;;;26.72;63.83301;940.7745;;;;
2019/07/01 13:05:54;;;;;;;14.6;6.9;;;;;;;26.6;63.22266;940.7894;;;;
2019/07/01 13:08:21;;;;;;;13.1;6.1;;;;;;;26.82;60.68262;940.6766;;;;
2019/07/01 13:10:47;;;;;;;11.2;6.1;;;;;;;26.58;61.33789;940.6139;;;;
2019/07/01 13:13:12;;;;;;;9.5;5.9;;;;;;;26.81;58.0166;940.5118;;;;
2019/07/01 13:15:44;;;;;;;11.4;6;;;;;;;26.48;60.00977;940.4895;;;;
2019/07/01 13:18:12;;;;;;;9.7;5.4;;;;;;;26.53;60.69141;940.3505;;;;
2019/07/01 13:20:36;;;;;;;12.5;5.7;;;;;;;26.94;58.61328;940.3439;;;;
2019/07/01 13:23:04;;;;;;;12.2;5.6;;;;;;;27.04;58.01074;940.3811;;;;
2019/07/01 13:25:25;;;;;;;10.5;5.3;;;;;;;27.3;56.22852;940.3585;;;;
2019/07/01 13:27:50;;;;;;;9.4;5.1;;;;;;;27.44;53.67285;940.3356;;;;
2019/07/01 13:30:17;;;;;;;9.6;5.5;;;;;;;27.87;54.35352;940.3594;;;;
2019/07/01 13:32:43;;;;;;;9.6;5.2;;;;;;;28.19;54.32031;940.3116;;;;
2019/07/01 13:35:07;;;;;;;12.2;5.5;;;;;;;28.64;52.12695;940.3215;;;;
2019/07/01 13:37:34;;;;;;;13;5.5;;;;;;;28.75;53.31738;940.3773;;;;
2019/07/01 13:39:59;;;;;;;11.9;5.7;;;;;;;28.82;50.27832;940.4578;;;;
2019/07/01 13:42:23;;;;;;;10.6;5.4;;;;;;;28.98;49.75977;940.5774;;;;
2019/07/01 13:44:49;;;;;;;11;5.6;;;;;;;28.86;49.47461;940.6397;;;;
2019/07/01 13:47:15;;;;;;;11.5;5.5;;;;;;;28.68;48.97852;940.7217;;;;
2019/07/01 13:49:44;;;;;;;14.1;6;;;;;;;28.6;52.99023;940.6514;;;;
2019/07/01 13:52:10;;;;;;;13.8;5.8;;;;;;;27.92;54.19336;940.5865;;;;
2019/07/01 13:54:34;;;;;;;11.9;5.7;;;;;;;27.42;56.55273;940.5916;;;;
2019/07/01 13:57:00;;;;;;;11.4;5.8;;;;;;;27.44;56.36621;940.6013;;;;
2019/07/01 13:59:24;;;;;;;14.5;6.4;;;;;;;27.36;57.81543;940.6053;;;;
2019/07/01 14:01:51;;;;;;;10.3;5.6;;;;;;;27.02;59.23926;940.642;;;;
2019/07/01 14:04:14;;;;;;;10;5.8;;;;;;;26.68;60.10742;940.6981;;;;
2019/07/01 14:06:39;;;;;;;13.4;6.3;;;;;;;26.4;59.86914;940.6591;;;;